Time;durP1;ratioP1;P1;durP2;ratioP2;P2;SDS_P1;SDS_P2;PMS_P1;PMS_P2;Temp;Humidity;BMP_temperature;BMP_pressure;BME280_temperature;BME280_humidity;BME280_pressure;Samples;Min_cycle;Max_cycle;Signal;HPM_P1;HPM_P2
2022/12/03 00:00:28;;;;;;;;;;;3.30;99.90;;;;;;5045576;28;19931;-61
2022/12/03 00:02:54;;;;;;;;;;;3.30;99.90;;;;;;5042068;28;19947;-62
2022/12/03 00:05:19;;;;;;;;;;;3.30;99.90;;;;;;5055288;28;19928;-61
2022/12/03 00:07:45;;;;;;;;;;;3.30;99.90;;;;;;5045005;28;20407;-61
2022/12/03 00:10:10;;;;;;;;;;;3.20;99.90;;;;;;5048277;28;19920;-62
2022/12/03 00:12:36;;;;;;;;;;;3.20;99.90;;;;;;5049553;28;19967;-61
2022/12/03 00:15:01;;;;;;;;;;;3.30;99.90;;;;;;5048764;28;19921;-60
2022/12/03 00:17:27;;;;;;;;;;;3.20;99.90;;;;;;5055244;28;19917;-62
2022/12/03 00:19:52;;;;;;;;;;;3.30;99.90;;;;;;5043417;28;19959;-61
2022/12/03 00:22:18;;;;;;;;;;;3.20;99.90;;;;;;5045818;28;19912;-59
2022/12/03 00:24:43;;;;;;;;;;;3.30;99.90;;;;;;5049629;28;19951;-62
2022/12/03 00:27:09;;;;;;;;;;;3.30;99.90;;;;;;5043215;28;19912;-62
2022/12/03 00:29:34;;;;;;;;;;;3.30;99.90;;;;;;5045989;28;19913;-61
2022/12/03 00:31:59;;;;;;;;;;;3.30;99.90;;;;;;5044519;28;19966;-61
2022/12/03 00:34:25;;;;;;;;;;;3.30;99.90;;;;;;5042230;28;19983;-61
2022/12/03 00:36:50;;;;;;;;;;;3.30;99.90;;;;;;5042195;28;19913;-63
2022/12/03 00:39:16;;;;;;;;;;;3.30;99.90;;;;;;5049224;28;19921;-62
2022/12/03 00:41:41;;;;;;;;;;;3.30;99.90;;;;;;5045074;28;19913;-62
2022/12/03 00:44:07;;;;;;;;;;;3.40;99.90;;;;;;5045064;28;20414;-61
2022/12/03 00:46:32;;;;;;;;;;;3.40;99.90;;;;;;5040632;28;20421;-62
2022/12/03 00:48:58;;;;;;;;;;;3.40;99.90;;;;;;5043737;28;19912;-61
2022/12/03 00:51:23;;;;;;;;;;;3.40;99.90;;;;;;5043592;28;19944;-61
2022/12/03 00:53:48;;;;;;;;;;;3.40;99.90;;;;;;5047089;28;22035;-58
2022/12/03 00:56:14;;;;;;;;;;;3.40;99.90;;;;;;5047653;28;19962;-60
2022/12/03 00:58:39;;;;;;;;;;;3.40;99.90;;;;;;5040229;28;19909;-61
2022/12/03 01:01:05;;;;;;;;;;;3.50;99.90;;;;;;5045707;28;19913;-63
2022/12/03 01:03:30;;;;;;;;;;;3.50;99.90;;;;;;5042152;28;20347;-61
2022/12/03 01:05:56;;;;;;;;;;;3.40;99.90;;;;;;5053834;28;19923;-61
2022/12/03 01:08:21;;;;;;;;;;;3.40;99.90;;;;;;5054880;28;20306;-62
2022/12/03 01:10:47;;;;;;;;;;;3.50;99.90;;;;;;5049879;28;20015;-62
2022/12/03 01:13:12;;;;;;;;;;;3.50;99.90;;;;;;5051906;28;19916;-62
2022/12/03 01:15:38;;;;;;;;;;;3.50;99.90;;;;;;5050859;28;20352;-62
2022/12/03 01:18:03;;;;;;;;;;;3.40;99.90;;;;;;5051083;28;19913;-58
2022/12/03 01:20:29;;;;;;;;;;;3.40;99.90;;;;;;5046118;28;20322;-62
2022/12/03 01:22:54;;;;;;;;;;;3.40;99.90;;;;;;5050748;28;19913;-62
2022/12/03 01:25:20;;;;;;;;;;;3.40;99.90;;;;;;5046890;28;20033;-62
2022/12/03 01:27:45;;;;;;;;;;;3.50;99.90;;;;;;5041498;28;19913;-62
2022/12/03 01:30:11;;;;;;;;;;;3.50;99.90;;;;;;5045916;28;19960;-61
2022/12/03 01:32:37;;;;;;;;;;;3.40;99.90;;;;;;5040610;28;19913;-61
2022/12/03 01:35:02;;;;;;;;;;;3.40;99.90;;;;;;5048975;28;19913;-61
2022/12/03 01:37:28;;;;;;;;;;;3.50;99.90;;;;;;5047232;28;20386;-59
2022/12/03 01:39:53;;;;;;;;;;;3.50;99.90;;;;;;5042790;28;19913;-62
2022/12/03 01:42:25;;;;;;;;;;;3.50;99.90;;;;;;5040253;28;19979;-62
2022/12/03 01:44:51;;;;;;;;;;;3.40;99.90;;;;;;5047760;28;19945;-61
2022/12/03 01:47:18;;;;;;;;;;;3.50;99.90;;;;;;5044946;28;19961;-62
2022/12/03 01:49:52;;;;;;;;;;;3.60;99.90;;;;;;5050742;28;19916;-62
2022/12/03 01:52:19;;;;;;;;;;;3.60;99.90;;;;;;5049255;28;20318;-62
2022/12/03 01:54:47;;;;;;;;;;;3.60;99.90;;;;;;5061122;28;19960;-62
2022/12/03 01:57:17;;;;;;;;;;;3.60;99.90;;;;;;5056357;28;19912;-61
2022/12/03 01:59:43;;;;;;;;;;;3.50;99.90;;;;;;5051339;28;19912;-62
2022/12/03 02:02:28;;;;;;;;;;;3.50;99.90;;;;;;5054929;28;20271;-62
2022/12/03 02:04:54;;;;;;;;;;;3.50;99.90;;;;;;5054264;28;19913;-63
2022/12/03 02:07:30;;;;;;;;;;;3.50;99.90;;;;;;5048462;28;19912;-60
2022/12/03 02:09:56;;;;;;;;;;;3.50;99.90;;;;;;5046705;28;19921;-61
2022/12/03 02:12:26;;;;;;;;;;;3.50;99.90;;;;;;5046868;28;20267;-61
2022/12/03 02:14:52;;;;;;;;;;;3.50;99.90;;;;;;5048983;28;19940;-62
2022/12/03 02:17:17;;;;;;;;;;;3.50;99.90;;;;;;5049061;28;19952;-62
2022/12/03 02:19:43;;;;;;;;;;;3.50;99.90;;;;;;5050949;28;19920;-58
2022/12/03 02:22:15;;;;;;;;;;;3.50;99.90;;;;;;5055076;28;19912;-62
2022/12/03 02:24:45;;;;;;;;;;;3.50;99.90;;;;;;5053898;28;19958;-62
2022/12/03 02:27:10;;;;;;;;;;;3.50;99.90;;;;;;5055148;28;19996;-61
2022/12/03 02:29:36;;;;;;;;;;;3.60;99.90;;;;;;5047003;28;20007;-61
2022/12/03 02:32:01;;;;;;;;;;;3.60;99.90;;;;;;5048753;28;19966;-58
2022/12/03 02:34:39;;;;;;;;;;;3.60;99.90;;;;;;5054278;28;20409;-59
2022/12/03 02:37:06;;;;;;;;;;;3.60;99.90;;;;;;5058804;28;20548;-60
2022/12/03 02:39:32;;;;;;;;;;;3.60;99.90;;;;;;5049117;28;19916;-61
2022/12/03 02:44:42;;;;;;;;;;;3.60;99.90;;;;;;5048477;28;20414;-61
2022/12/03 02:47:07;;;;;;;;;;;3.60;99.90;;;;;;5058778;28;19921;-62
2022/12/03 02:49:33;;;;;;;;;;;3.60;99.90;;;;;;5048487;28;19963;-61
2022/12/03 02:51:58;;;;;;;;;;;3.70;99.90;;;;;;5048315;28;19917;-62
2022/12/03 02:54:24;;;;;;;;;;;3.70;99.90;;;;;;5054733;28;20294;-60
2022/12/03 02:56:49;;;;;;;;;;;3.70;99.90;;;;;;5063275;28;19913;-61
2022/12/03 02:59:15;;;;;;;;;;;3.60;99.90;;;;;;5047376;28;20389;-61
2022/12/03 03:01:41;;;;;;;;;;;3.60;99.90;;;;;;5047347;28;20592;-62
2022/12/03 03:04:06;;;;;;;;;;;3.60;99.90;;;;;;5054549;28;19921;-61
2022/12/03 03:06:32;;;;;;;;;;;3.50;99.90;;;;;;5044670;28;19917;-60
2022/12/03 03:08:57;;;;;;;;;;;3.50;99.90;;;;;;5050674;28;20059;-61
2022/12/03 03:11:23;;;;;;;;;;;3.60;99.90;;;;;;5048238;28;19924;-61
2022/12/03 03:13:49;;;;;;;;;;;3.60;99.90;;;;;;5056567;28;19916;-60
2022/12/03 03:16:14;;;;;;;;;;;3.50;99.90;;;;;;5056302;28;19958;-61
2022/12/03 03:18:40;;;;;;;;;;;3.60;99.90;;;;;;5045981;28;20287;-59
2022/12/03 03:21:06;;;;;;;;;;;3.60;99.90;;;;;;5051036;28;19913;-59
2022/12/03 03:23:32;;;;;;;;;;;3.50;99.90;;;;;;5048599;28;19959;-61
2022/12/03 03:26:02;;;;;;;;;;;3.50;99.90;;;;;;5047727;28;19955;-61
2022/12/03 03:28:29;;;;;;;;;;;3.50;99.90;;;;;;5046966;28;19928;-60
2022/12/03 03:30:54;;;;;;;;;;;3.60;99.90;;;;;;5055459;28;20003;-61
2022/12/03 03:33:20;;;;;;;;;;;3.60;99.90;;;;;;5052295;28;20008;-61
2022/12/03 03:35:46;;;;;;;;;;;3.60;99.90;;;;;;5056966;28;19967;-61
2022/12/03 03:38:12;;;;;;;;;;;3.70;99.90;;;;;;5055808;28;19916;-61
2022/12/03 03:40:37;;;;;;;;;;;3.70;99.90;;;;;;5053129;28;19917;-61
2022/12/03 03:43:03;;;;;;;;;;;3.70;99.90;;;;;;5047857;28;19912;-61
2022/12/03 03:45:29;;;;;;;;;;;3.70;99.90;;;;;;5050882;28;19936;-61
2022/12/03 03:47:56;;;;;;;;;;;3.70;99.90;;;;;;5052099;28;20326;-61
2022/12/03 03:50:21;;;;;;;;;;;3.70;99.90;;;;;;5051948;28;19920;-60
2022/12/03 03:52:47;;;;;;;;;;;3.70;99.90;;;;;;5049070;28;20551;-61
2022/12/03 03:55:12;;;;;;;;;;;3.60;99.90;;;;;;5052456;28;19920;-61
2022/12/03 03:57:38;;;;;;;;;;;3.60;99.90;;;;;;5048940;28;19913;-61
2022/12/03 04:00:05;;;;;;;;;;;3.60;99.90;;;;;;5055271;28;19913;-60
2022/12/03 04:02:31;;;;;;;;;;;3.50;99.90;;;;;;5054484;28;19913;-61
2022/12/03 04:04:57;;;;;;;;;;;3.50;99.90;;;;;;5052052;28;19985;-61
2022/12/03 04:07:22;;;;;;;;;;;3.50;99.90;;;;;;5046177;28;20739;-62
2022/12/03 04:09:47;;;;;;;;;;;3.40;99.90;;;;;;5046479;28;19920;-58
2022/12/03 04:14:57;;;;;;;;;;;3.40;99.90;;;;;;5043013;28;20131;-62
2022/12/03 04:17:22;;;;;;;;;;;3.40;99.90;;;;;;5043926;28;20017;-61
2022/12/03 04:19:48;;;;;;;;;;;3.40;99.90;;;;;;5043881;28;19914;-61
2022/12/03 04:30:26;;;;;;;;;;;3.40;99.90;;;;;;5049348;28;20022;-61
2022/12/03 04:35:41;;;;;;;;;;;3.40;99.90;;;;;;5044533;28;20263;-61
2022/12/03 04:38:07;;;;;;;;;;;3.40;99.90;;;;;;5040949;28;19925;-61
2022/12/03 04:43:17;;;;;;;;;;;3.40;99.90;;;;;;5051565;28;19920;-63
2022/12/03 04:45:42;;;;;;;;;;;3.40;99.90;;;;;;5051857;28;19917;-62
2022/12/03 04:48:08;;;;;;;;;;;3.50;99.90;;;;;;5052148;28;20003;-61
2022/12/03 04:50:33;;;;;;;;;;;3.50;99.90;;;;;;5045729;28;19913;-62
2022/12/03 04:52:59;;;;;;;;;;;3.40;99.90;;;;;;5053912;28;19916;-62
2022/12/03 04:55:24;;;;;;;;;;;3.40;99.90;;;;;;5057942;28;20004;-62
2022/12/03 04:57:49;;;;;;;;;;;3.40;99.90;;;;;;5042362;28;19913;-63
2022/12/03 05:00:15;;;;;;;;;;;3.40;99.90;;;;;;5051528;28;19912;-63
2022/12/03 05:02:40;;;;;;;;;;;3.40;99.90;;;;;;5049491;28;19936;-62
2022/12/03 05:05:06;;;;;;;;;;;3.30;99.90;;;;;;5047420;28;19916;-62
2022/12/03 05:07:31;;;;;;;;;;;3.30;99.90;;;;;;5042176;28;19912;-63
2022/12/03 05:09:57;;;;;;;;;;;3.30;99.90;;;;;;5055866;28;20373;-61
2022/12/03 05:12:22;;;;;;;;;;;3.30;99.90;;;;;;5045631;28;19913;-61
2022/12/03 05:14:48;;;;;;;;;;;3.20;99.90;;;;;;5043556;28;19924;-62
2022/12/03 05:17:13;;;;;;;;;;;3.30;99.90;;;;;;5052396;28;19916;-62
2022/12/03 05:22:23;;;;;;;;;;;3.30;99.90;;;;;;5049911;28;19920;-63
2022/12/03 05:24:48;;;;;;;;;;;3.30;99.90;;;;;;5055739;28;19916;-61
2022/12/03 05:27:14;;;;;;;;;;;3.40;99.90;;;;;;5052247;28;19916;-62
2022/12/03 05:29:39;;;;;;;;;;;3.40;99.90;;;;;;5055649;28;20375;-62
2022/12/03 05:32:04;;;;;;;;;;;3.40;99.90;;;;;;5049733;28;19939;-61
2022/12/03 05:34:30;;;;;;;;;;;3.40;99.90;;;;;;5048507;28;19913;-62
2022/12/03 05:36:55;;;;;;;;;;;3.40;99.90;;;;;;5048377;28;20059;-62
2022/12/03 05:39:21;;;;;;;;;;;3.40;99.90;;;;;;5049899;28;19932;-61
2022/12/03 05:44:31;;;;;;;;;;;3.50;99.90;;;;;;5045610;28;19939;-62
2022/12/03 05:46:56;;;;;;;;;;;3.50;99.90;;;;;;5048038;28;20350;-62
2022/12/03 05:49:21;;;;;;;;;;;3.40;99.90;;;;;;5043418;28;19917;-62
2022/12/03 05:51:47;;;;;;;;;;;3.40;99.90;;;;;;5045045;28;19968;-62
2022/12/03 05:54:12;;;;;;;;;;;3.40;99.90;;;;;;5048098;28;19920;-61
2022/12/03 05:56:38;;;;;;;;;;;3.50;99.90;;;;;;5043093;28;19921;-62
2022/12/03 05:59:03;;;;;;;;;;;3.50;99.90;;;;;;5036671;28;19913;-61
2022/12/03 06:01:29;;;;;;;;;;;3.40;99.90;;;;;;5043202;28;20554;-58
2022/12/03 06:03:54;;;;;;;;;;;3.40;99.90;;;;;;5045579;28;19986;-61
2022/12/03 06:06:19;;;;;;;;;;;3.40;99.90;;;;;;5051163;28;19917;-63
2022/12/03 06:08:45;;;;;;;;;;;3.40;99.90;;;;;;5049448;28;20018;-62
2022/12/03 06:11:10;;;;;;;;;;;3.40;99.90;;;;;;5043677;28;19919;-62
2022/12/03 06:13:36;;;;;;;;;;;3.30;99.90;;;;;;5051631;28;19909;-62
2022/12/03 06:16:01;;;;;;;;;;;3.40;99.90;;;;;;5053342;28;19948;-60
2022/12/03 06:18:27;;;;;;;;;;;3.40;99.90;;;;;;5053424;28;19920;-62
2022/12/03 06:20:52;;;;;;;;;;;3.40;99.90;;;;;;5051777;28;19917;-62
2022/12/03 06:23:18;;;;;;;;;;;3.40;99.90;;;;;;5053441;28;20440;-62
2022/12/03 06:25:43;;;;;;;;;;;3.30;99.90;;;;;;5047309;28;20389;-62
2022/12/03 06:28:08;;;;;;;;;;;3.40;99.90;;;;;;5048523;28;19923;-63
2022/12/03 06:30:34;;;;;;;;;;;3.40;99.90;;;;;;5042492;28;19952;-62
2022/12/03 06:33:00;;;;;;;;;;;3.40;99.90;;;;;;5051789;28;19973;-62
2022/12/03 06:35:25;;;;;;;;;;;3.30;99.90;;;;;;5044977;28;19959;-63
2022/12/03 06:37:51;;;;;;;;;;;3.40;99.90;;;;;;5043178;28;19987;-63
2022/12/03 06:40:16;;;;;;;;;;;3.50;99.90;;;;;;5048853;28;19909;-62
2022/12/03 06:42:42;;;;;;;;;;;3.50;99.90;;;;;;5051270;28;19951;-62
2022/12/03 06:45:08;;;;;;;;;;;3.60;99.90;;;;;;5050639;28;20430;-62
2022/12/03 06:47:33;;;;;;;;;;;3.50;99.90;;;;;;5052604;28;19924;-62
2022/12/03 06:49:58;;;;;;;;;;;3.50;99.90;;;;;;5057478;28;19915;-63
2022/12/03 06:52:24;;;;;;;;;;;3.50;99.90;;;;;;5046900;28;19936;-62
2022/12/03 06:54:49;;;;;;;;;;;3.60;99.90;;;;;;5039895;28;20012;-62
2022/12/03 06:57:15;;;;;;;;;;;3.60;99.90;;;;;;5043426;28;19924;-62
2022/12/03 06:59:40;;;;;;;;;;;3.60;99.90;;;;;;5057780;28;19944;-63
2022/12/03 07:02:06;;;;;;;;;;;3.40;99.90;;;;;;5049854;28;20386;-58
2022/12/03 07:04:31;;;;;;;;;;;3.40;99.90;;;;;;5034092;28;20062;-62
2022/12/03 07:06:57;;;;;;;;;;;3.40;99.90;;;;;;5057081;28;20409;-58
2022/12/03 07:09:22;;;;;;;;;;;3.40;99.90;;;;;;5046275;28;19921;-62
2022/12/03 07:11:48;;;;;;;;;;;3.40;99.90;;;;;;5046854;28;19917;-62
2022/12/03 07:14:13;;;;;;;;;;;3.40;99.90;;;;;;5056888;28;20366;-61
2022/12/03 07:16:39;;;;;;;;;;;3.50;99.90;;;;;;5060558;28;19916;-64
2022/12/03 07:19:05;;;;;;;;;;;3.40;99.90;;;;;;5043686;28;20012;-62
2022/12/03 07:21:31;;;;;;;;;;;3.50;99.90;;;;;;5057373;28;19915;-63
2022/12/03 07:23:56;;;;;;;;;;;3.50;99.90;;;;;;5052275;28;19917;-62
2022/12/03 07:26:22;;;;;;;;;;;3.50;99.90;;;;;;5055133;28;19916;-61
2022/12/03 07:28:47;;;;;;;;;;;3.60;99.90;;;;;;5050614;28;20311;-62
2022/12/03 07:31:13;;;;;;;;;;;3.70;99.90;;;;;;5046871;28;20004;-59
2022/12/03 07:33:38;;;;;;;;;;;3.60;99.90;;;;;;5057866;28;19924;-59
2022/12/03 07:36:04;;;;;;;;;;;3.70;99.90;;;;;;5050555;28;20000;-62
2022/12/03 07:38:29;;;;;;;;;;;3.70;99.90;;;;;;5047996;28;19920;-63
2022/12/03 07:40:55;;;;;;;;;;;3.60;99.90;;;;;;5050945;28;19952;-61
2022/12/03 07:43:20;;;;;;;;;;;3.60;99.90;;;;;;5050229;28;19913;-61
2022/12/03 07:45:46;;;;;;;;;;;3.70;99.90;;;;;;5065881;28;19952;-62
2022/12/03 07:48:11;;;;;;;;;;;3.60;99.90;;;;;;5046502;28;19909;-60
2022/12/03 07:50:37;;;;;;;;;;;3.70;99.90;;;;;;5052522;28;20454;-62
2022/12/03 07:53:02;;;;;;;;;;;3.70;99.90;;;;;;5058942;28;20274;-62
2022/12/03 07:55:28;;;;;;;;;;;3.70;99.90;;;;;;5070171;28;19939;-61
2022/12/03 07:57:53;;;;;;;;;;;3.70;99.90;;;;;;5069999;28;19920;-61
2022/12/03 08:00:19;;;;;;;;;;;3.70;99.90;;;;;;5049417;28;19916;-60
2022/12/03 08:02:44;;;;;;;;;;;3.80;99.90;;;;;;5050568;28;19973;-61
2022/12/03 08:05:10;;;;;;;;;;;3.70;99.90;;;;;;5052814;28;19917;-61
2022/12/03 08:07:35;;;;;;;;;;;3.70;99.90;;;;;;5056751;28;19913;-60
2022/12/03 08:10:01;;;;;;;;;;;3.70;99.90;;;;;;5046897;28;19943;-58
2022/12/03 08:12:38;;;;;;;;;;;3.80;99.90;;;;;;5045455;28;19917;-61
2022/12/03 08:15:13;;;;;;;;;;;3.80;99.90;;;;;;5049885;28;20279;-58
2022/12/03 08:17:39;;;;;;;;;;;3.80;99.90;;;;;;5049630;28;19944;-58
2022/12/03 08:20:16;;;;;;;;;;;3.80;99.90;;;;;;5048028;28;20006;-59
2022/12/03 08:22:42;;;;;;;;;;;3.80;99.90;;;;;;5049515;28;19909;-60
2022/12/03 08:25:20;;;;;;;;;;;3.80;99.90;;;;;;5051296;28;20430;-60
2022/12/03 08:27:45;;;;;;;;;;;3.70;99.90;;;;;;5049890;28;19908;-62
2022/12/03 08:30:15;;;;;;;;;;;3.80;99.90;;;;;;5061473;28;19912;-59
2022/12/03 08:32:41;;;;;;;;;;;3.80;99.90;;;;;;5064512;28;19916;-62
2022/12/03 08:35:27;;;;;;;;;;;3.80;99.90;;;;;;5055132;28;20333;-61
2022/12/03 08:38:11;;;;;;;;;;;3.80;99.90;;;;;;5050103;28;19917;-61
2022/12/03 08:40:40;;;;;;;;;;;3.70;99.90;;;;;;5047234;28;20019;-61
2022/12/03 08:43:17;;;;;;;;;;;3.70;99.90;;;;;;5056819;28;19956;-59
2022/12/03 08:45:43;;;;;;;;;;;3.60;99.90;;;;;;5060942;28;19960;-62
2022/12/03 08:48:18;;;;;;;;;;;3.70;99.90;;;;;;5064652;28;20286;-59
2022/12/03 08:50:43;;;;;;;;;;;3.70;99.90;;;;;;5052649;28;20331;-60
2022/12/03 08:53:12;;;;;;;;;;;3.70;99.90;;;;;;5062470;28;20019;-61
2022/12/03 08:55:38;;;;;;;;;;;3.60;99.90;;;;;;5049835;28;20011;-57
2022/12/03 08:58:22;;;;;;;;;;;3.60;99.90;;;;;;5052533;28;19919;-57
2022/12/03 09:00:51;;;;;;;;;;;3.70;99.90;;;;;;5064165;28;20392;-59
2022/12/03 09:03:17;;;;;;;;;;;3.70;99.90;;;;;;5052149;28;19914;-58
2022/12/03 09:05:43;;;;;;;;;;;3.70;99.90;;;;;;5046235;28;19927;-60
2022/12/03 09:08:08;;;;;;;;;;;3.80;99.90;;;;;;5049220;28;19925;-60
2022/12/03 09:10:34;;;;;;;;;;;3.70;99.90;;;;;;5057919;28;19912;-62
2022/12/03 09:13:00;;;;;;;;;;;3.70;99.90;;;;;;5051857;28;19917;-60
2022/12/03 09:15:25;;;;;;;;;;;3.70;99.90;;;;;;5044886;28;19927;-62
2022/12/03 09:17:50;;;;;;;;;;;3.70;99.90;;;;;;5044751;28;19951;-60
2022/12/03 09:20:16;;;;;;;;;;;3.70;99.90;;;;;;5055497;28;19913;-62
2022/12/03 09:22:41;;;;;;;;;;;3.80;99.90;;;;;;5048432;28;20449;-61
2022/12/03 09:25:07;;;;;;;;;;;3.80;99.90;;;;;;5042793;28;20367;-59
2022/12/03 09:27:32;;;;;;;;;;;3.80;99.90;;;;;;5045169;28;19917;-60
2022/12/03 09:29:58;;;;;;;;;;;3.80;99.90;;;;;;5045759;28;19919;-62
2022/12/03 09:32:23;;;;;;;;;;;3.80;99.90;;;;;;5050148;28;19912;-58
2022/12/03 09:34:49;;;;;;;;;;;3.90;99.90;;;;;;5048889;28;20311;-63
2022/12/03 09:37:15;;;;;;;;;;;3.90;99.90;;;;;;5045826;28;19917;-61
2022/12/03 09:39:40;;;;;;;;;;;3.90;99.90;;;;;;5047640;28;20403;-56
2022/12/03 09:42:06;;;;;;;;;;;4.00;99.90;;;;;;5051111;28;19917;-59
2022/12/03 09:44:33;;;;;;;;;;;4.00;99.90;;;;;;5052936;28;19948;-60
2022/12/03 09:47:01;;;;;;;;;;;4.00;99.90;;;;;;5053284;28;20138;-62
2022/12/03 09:49:29;;;;;;;;;;;3.90;99.90;;;;;;5046229;28;20226;-61
2022/12/03 09:51:55;;;;;;;;;;;3.90;99.90;;;;;;5046151;28;19916;-60
2022/12/03 09:54:23;;;;;;;;;;;4.00;99.90;;;;;;5046943;28;19916;-60
2022/12/03 09:56:48;;;;;;;;;;;4.00;99.90;;;;;;5049382;28;19966;-61
2022/12/03 09:59:14;;;;;;;;;;;4.00;99.90;;;;;;5045647;28;19996;-58
2022/12/03 10:01:40;;;;;;;;;;;4.00;99.90;;;;;;5049219;28;19920;-62
2022/12/03 10:04:05;;;;;;;;;;;4.10;99.90;;;;;;5047977;28;20011;-62
2022/12/03 10:06:31;;;;;;;;;;;4.20;99.90;;;;;;5045973;28;20027;-59
2022/12/03 10:08:58;;;;;;;;;;;4.10;99.90;;;;;;5047780;28;19952;-62
2022/12/03 10:11:24;;;;;;;;;;;4.00;99.90;;;;;;5054100;28;19913;-60
2022/12/03 10:13:51;;;;;;;;;;;4.10;99.90;;;;;;5050228;28;20405;-63
2022/12/03 10:16:17;;;;;;;;;;;4.10;99.90;;;;;;5048542;28;19913;-62
2022/12/03 10:18:46;;;;;;;;;;;4.10;99.90;;;;;;5045290;28;20393;-63
2022/12/03 10:21:20;;;;;;;;;;;4.00;99.90;;;;;;5049800;28;19913;-62
2022/12/03 10:23:46;;;;;;;;;;;4.00;99.90;;;;;;5051603;28;20004;-61
2022/12/03 10:26:12;;;;;;;;;;;4.10;99.90;;;;;;5051283;28;20457;-59
2022/12/03 10:28:46;;;;;;;;;;;4.10;99.90;;;;;;5045227;28;19913;-61
2022/12/03 10:31:12;;;;;;;;;;;4.10;99.90;;;;;;5048106;28;20006;-61
2022/12/03 10:33:43;;;;;;;;;;;4.10;99.90;;;;;;5047959;28;19964;-61
2022/12/03 10:36:26;;;;;;;;;;;4.20;99.90;;;;;;5053583;28;19913;-61
2022/12/03 10:39:08;;;;;;;;;;;4.20;99.90;;;;;;5048506;28;19917;-60
2022/12/03 10:41:33;;;;;;;;;;;4.20;99.90;;;;;;5050786;28;19935;-60
2022/12/03 10:44:14;;;;;;;;;;;4.20;99.90;;;;;;5049938;28;19996;-60
2022/12/03 10:46:39;;;;;;;;;;;4.20;99.90;;;;;;5058704;28;20088;-60
2022/12/03 10:49:16;;;;;;;;;;;4.20;99.90;;;;;;5045297;28;20019;-59
2022/12/03 10:51:42;;;;;;;;;;;4.30;99.90;;;;;;5047230;28;20375;-61
2022/12/03 10:54:26;;;;;;;;;;;4.30;99.90;;;;;;5048485;28;19920;-61
2022/12/03 10:56:52;;;;;;;;;;;4.30;99.90;;;;;;5046564;28;19920;-58
2022/12/03 10:59:19;;;;;;;;;;;4.30;99.90;;;;;;5041008;28;19909;-61
2022/12/03 11:01:45;;;;;;;;;;;4.40;99.90;;;;;;5045102;28;19913;-60
2022/12/03 11:04:19;;;;;;;;;;;4.50;99.90;;;;;;5047764;28;20294;-61
2022/12/03 11:06:45;;;;;;;;;;;4.50;99.90;;;;;;5048720;28;20011;-59
2022/12/03 11:09:15;;;;;;;;;;;4.50;99.90;;;;;;5049227;28;20003;-60
2022/12/03 11:11:40;;;;;;;;;;;4.60;99.90;;;;;;5044521;28;19947;-61
2022/12/03 11:14:08;;;;;;;;;;;4.60;99.90;;;;;;5048791;28;19913;-59
2022/12/03 11:16:40;;;;;;;;;;;4.60;99.90;;;;;;5041139;28;19913;-61
2022/12/03 11:19:11;;;;;;;;;;;4.70;99.90;;;;;;5051191;28;19909;-61
2022/12/03 11:21:55;;;;;;;;;;;4.70;99.90;;;;;;5045916;28;19912;-61
2022/12/03 11:24:20;;;;;;;;;;;4.60;99.90;;;;;;5047452;28;19924;-61
2022/12/03 11:26:46;;;;;;;;;;;4.70;99.90;;;;;;5047279;28;19913;-60
2022/12/03 11:29:14;;;;;;;;;;;4.70;99.90;;;;;;5046316;28;19927;-60
2022/12/03 11:31:41;;;;;;;;;;;4.70;99.90;;;;;;5042822;28;20358;-61
2022/12/03 11:34:16;;;;;;;;;;;4.60;99.90;;;;;;5046965;28;19913;-62
2022/12/03 11:37:00;;;;;;;;;;;4.70;99.90;;;;;;5048182;28;19953;-61
2022/12/03 11:39:45;;;;;;;;;;;4.70;99.90;;;;;;5034056;28;19917;-62
2022/12/03 11:42:26;;;;;;;;;;;4.60;99.90;;;;;;5045379;28;20166;-60
2022/12/03 11:45:04;;;;;;;;;;;4.60;99.90;;;;;;5043349;28;19970;-57
2022/12/03 11:47:40;;;;;;;;;;;4.70;99.90;;;;;;5047415;28;19969;-62
2022/12/03 11:50:28;;;;;;;;;;;4.70;99.90;;;;;;5045433;28;19919;-59
2022/12/03 11:52:54;;;;;;;;;;;4.60;99.90;;;;;;5044726;28;20298;-57
2022/12/03 11:55:27;;;;;;;;;;;4.50;99.90;;;;;;5044819;28;19920;-60
2022/12/03 11:58:00;;;;;;;;;;;4.50;99.90;;;;;;5046438;28;19921;-57
2022/12/03 12:00:25;;;;;;;;;;;4.40;99.90;;;;;;5045084;28;19927;-61
2022/12/03 12:02:52;;;;;;;;;;;4.30;99.90;;;;;;5044330;28;20290;-61
2022/12/03 12:05:18;;;;;;;;;;;4.30;99.90;;;;;;5044677;28;19970;-61
2022/12/03 12:07:46;;;;;;;;;;;4.20;99.90;;;;;;5054760;28;19913;-59
2022/12/03 12:10:12;;;;;;;;;;;4.30;99.90;;;;;;5041313;28;19912;-61
2022/12/03 12:12:44;;;;;;;;;;;4.30;99.90;;;;;;5044629;28;20014;-60
2022/12/03 12:15:40;;;;;;;;;;;4.30;99.90;;;;;;5052285;28;19917;-61
2022/12/03 12:18:24;;;;;;;;;;;4.20;99.90;;;;;;5023848;28;20080;-61
2022/12/03 12:20:49;;;;;;;;;;;4.30;99.90;;;;;;5049589;28;19920;-60
2022/12/03 12:23:26;;;;;;;;;;;4.40;99.90;;;;;;5051392;28;20001;-61
2022/12/03 12:25:52;;;;;;;;;;;4.50;99.90;;;;;;5057061;28;20444;-60
2022/12/03 12:28:17;;;;;;;;;;;4.40;99.90;;;;;;5050444;28;19951;-62
2022/12/03 12:30:42;;;;;;;;;;;4.40;99.90;;;;;;5054423;28;19913;-61
2022/12/03 12:33:11;;;;;;;;;;;4.30;99.90;;;;;;5042355;28;19913;-62
2022/12/03 12:35:36;;;;;;;;;;;4.30;99.90;;;;;;5045172;28;19913;-62
2022/12/03 12:38:05;;;;;;;;;;;4.20;99.90;;;;;;5048635;28;19923;-62
2022/12/03 12:40:32;;;;;;;;;;;4.20;99.90;;;;;;5056799;28;20283;-63
2022/12/03 12:43:02;;;;;;;;;;;4.20;99.90;;;;;;5044889;28;20021;-61
2022/12/03 12:45:29;;;;;;;;;;;4.30;99.90;;;;;;5044978;28;21682;-58
2022/12/03 12:48:00;;;;;;;;;;;4.30;99.90;;;;;;5043927;28;19919;-60
2022/12/03 12:50:25;;;;;;;;;;;4.40;99.90;;;;;;5039520;28;19913;-62
2022/12/03 12:52:53;;;;;;;;;;;4.30;99.90;;;;;;5043291;28;19920;-61
2022/12/03 12:55:19;;;;;;;;;;;4.40;99.90;;;;;;5043873;28;19943;-62
2022/12/03 12:57:44;;;;;;;;;;;4.50;99.90;;;;;;5044089;28;19909;-61
2022/12/03 13:00:14;;;;;;;;;;;4.30;99.90;;;;;;5051981;28;19928;-61
2022/12/03 13:02:58;;;;;;;;;;;4.30;99.90;;;;;;5040861;28;19917;-61
2022/12/03 13:05:26;;;;;;;;;;;4.30;99.90;;;;;;5045336;28;19974;-61
2022/12/03 13:07:53;;;;;;;;;;;4.40;99.90;;;;;;5051232;28;20397;-62
2022/12/03 13:10:19;;;;;;;;;;;4.40;99.90;;;;;;5053253;28;19919;-60
2022/12/03 13:12:44;;;;;;;;;;;4.40;99.90;;;;;;5047547;28;19921;-62
2022/12/03 13:15:30;;;;;;;;;;;4.50;99.90;;;;;;5040645;28;19923;-60
2022/12/03 13:17:55;;;;;;;;;;;4.50;99.90;;;;;;5049191;28;19971;-62
2022/12/03 13:20:21;;;;;;;;;;;4.40;99.90;;;;;;5048233;28;20384;-61
2022/12/03 13:22:46;;;;;;;;;;;4.40;99.90;;;;;;5056876;28;20379;-63
2022/12/03 13:25:32;;;;;;;;;;;4.40;99.90;;;;;;5049733;28;19909;-62
2022/12/03 13:27:58;;;;;;;;;;;4.30;99.90;;;;;;5047807;28;19930;-61
2022/12/03 13:30:25;;;;;;;;;;;4.30;99.90;;;;;;5048765;28;19999;-62
2022/12/03 13:32:51;;;;;;;;;;;4.30;99.90;;;;;;5045599;28;19913;-61
2022/12/03 13:35:30;;;;;;;;;;;4.30;99.90;;;;;;5042264;28;19920;-61
2022/12/03 13:37:56;;;;;;;;;;;4.30;99.90;;;;;;5053797;28;20306;-60
2022/12/03 13:40:29;;;;;;;;;;;4.20;99.90;;;;;;5039569;28;19913;-61
2022/12/03 13:42:55;;;;;;;;;;;4.10;99.90;;;;;;5051638;28;20374;-58
2022/12/03 13:45:23;;;;;;;;;;;4.00;99.90;;;;;;5048423;28;19916;-60
2022/12/03 13:47:52;;;;;;;;;;;4.10;99.90;;;;;;5055825;28;19913;-59
2022/12/03 13:50:17;;;;;;;;;;;4.10;99.90;;;;;;5053126;28;20391;-61
2022/12/03 13:52:42;;;;;;;;;;;4.10;99.90;;;;;;5060008;28;19919;-62
2022/12/03 13:55:09;;;;;;;;;;;4.20;99.90;;;;;;5052856;28;19919;-62
2022/12/03 13:57:34;;;;;;;;;;;4.20;99.90;;;;;;5049756;28;19954;-62
2022/12/03 14:00:00;;;;;;;;;;;4.20;99.90;;;;;;5048641;28;19913;-61
2022/12/03 14:02:25;;;;;;;;;;;4.10;99.90;;;;;;5062849;28;19908;-62
2022/12/03 14:04:51;;;;;;;;;;;4.10;99.90;;;;;;5053633;28;19913;-60
2022/12/03 14:07:16;;;;;;;;;;;4.10;99.90;;;;;;5050536;28;20046;-58
2022/12/03 14:09:42;;;;;;;;;;;4.10;99.90;;;;;;5058306;28;20063;-59
2022/12/03 14:12:26;;;;;;;;;;;4.10;99.90;;;;;;5056300;28;19917;-59
2022/12/03 14:14:51;;;;;;;;;;;4.20;99.90;;;;;;5048526;28;19913;-60
2022/12/03 14:17:17;;;;;;;;;;;4.30;99.90;;;;;;5059252;28;19913;-61
2022/12/03 14:19:43;;;;;;;;;;;4.30;99.90;;;;;;5051430;28;19915;-61
2022/12/03 14:22:08;;;;;;;;;;;4.30;99.90;;;;;;5054441;28;19916;-62
2022/12/03 14:24:38;;;;;;;;;;;4.30;99.90;;;;;;5052947;28;19917;-61
2022/12/03 14:27:04;;;;;;;;;;;4.20;99.90;;;;;;5047400;28;20027;-62
2022/12/03 14:29:29;;;;;;;;;;;4.20;99.90;;;;;;5053590;28;19936;-60
2022/12/03 14:31:55;;;;;;;;;;;4.20;99.90;;;;;;5054528;28;19919;-61
2022/12/03 14:34:20;;;;;;;;;;;4.30;99.90;;;;;;5052642;28;19954;-60
2022/12/03 14:36:46;;;;;;;;;;;4.30;99.90;;;;;;5056969;28;19912;-62
2022/12/03 14:39:11;;;;;;;;;;;4.30;99.90;;;;;;5063430;28;19966;-60
2022/12/03 14:44:22;;;;;;;;;;;4.20;99.90;;;;;;5047747;28;19974;-59
2022/12/03 14:46:48;;;;;;;;;;;4.20;99.90;;;;;;5045853;28;19947;-61
2022/12/03 14:49:13;;;;;;;;;;;4.30;99.90;;;;;;5046445;28;20446;-56
2022/12/03 14:51:39;;;;;;;;;;;4.30;99.90;;;;;;5042926;28;19916;-61
2022/12/03 14:54:04;;;;;;;;;;;4.30;99.90;;;;;;5052111;28;20348;-60
2022/12/03 14:56:30;;;;;;;;;;;4.30;99.90;;;;;;5046449;28;19913;-60
2022/12/03 14:58:55;;;;;;;;;;;4.20;99.90;;;;;;5053777;28;19917;-60